Time;durP1;ratioP1;P1;durP2;ratioP2;P2;SDS_P1;SDS_P2;PMS_P1;PMS_P2;Temp;Humidity;BMP_temperature;BMP_pressure;BME280_temperature;BME280_humidity;BME280_pressure;Samples;Min_cycle;Max_cycle;Signal;HPM_P1;HPM_P2
2022/12/01 00:00:38;;;;;;;;;;;;;;;13.77;73.25;102477.47;1261328;23;653;-73
2022/12/01 00:01:28;;;;;;;;;;;;;;;13.78;73.13;102476.53;1261260;23;614;-73
2022/12/01 00:02:19;;;;;;;;;;;;;;;13.77;73.71;102477.47;1262077;23;606;-73
2022/12/01 00:03:09;;;;;;;;;;;;;;;13.77;73.66;102480.16;1261382;23;638;-73
2022/12/01 00:04:00;;;;;;;;;;;;;;;13.76;73.08;102470.41;1261348;23;619;-73
2022/12/01 00:04:50;;;;;;;;;;;;;;;13.76;73.07;102476.63;1261450;23;603;-73
2022/12/01 00:05:40;;;;;;;;;;;;;;;13.76;73.39;102471.25;1260731;23;631;-72
2022/12/01 00:06:31;;;;;;;;;;;;;;;13.77;73.37;102478.34;1262259;23;633;-73
2022/12/01 00:07:21;;;;;;;;;;;;;;;13.76;73.60;102473.06;1261296;23;669;-72
2022/12/01 00:08:12;;;;;;;;;;;;;;;13.76;73.20;102471.25;1262082;23;642;-73
2022/12/01 00:10:27;;;;;;;;;;;;;;;13.76;73.29;102468.56;1262145;23;602;-73
2022/12/01 00:11:17;;;;;;;;;;;;;;;13.76;73.80;102473.06;1261389;23;681;-73
2022/12/01 00:12:08;;;;;;;;;;;;;;;13.76;73.59;102473.06;1261352;23;626;-72
2022/12/01 00:12:58;;;;;;;;;;;;;;;13.76;73.03;102478.44;1261336;23;618;-73
2022/12/01 00:13:48;;;;;;;;;;;;;;;13.77;72.91;102475.69;1261153;23;618;-73
2022/12/01 00:14:39;;;;;;;;;;;;;;;13.79;73.01;102471.06;1261279;23;670;-73
2022/12/01 00:15:29;;;;;;;;;;;;;;;13.80;73.69;102474.63;1261141;23;591;-73
2022/12/01 00:16:20;;;;;;;;;;;;;;;13.78;73.32;102468.50;1256658;23;657;-73
2022/12/01 00:17:11;;;;;;;;;;;;;;;13.79;73.18;102475.59;1254926;23;1885;-73
2022/12/01 00:18:01;;;;;;;;;;;;;;;13.79;73.48;102472.91;1261281;23;654;-72
2022/12/01 00:18:52;;;;;;;;;;;;;;;13.78;73.58;102469.38;1261352;23;583;-72
2022/12/01 00:19:42;;;;;;;;;;;;;;;13.78;73.09;102473.84;1261330;23;582;-72
2022/12/01 00:20:32;;;;;;;;;;;;;;;13.75;73.44;102474.00;1261329;23;606;-72
2022/12/01 00:21:23;;;;;;;;;;;;;;;13.74;73.92;102478.50;1261342;23;688;-72
2022/12/01 00:22:13;;;;;;;;;;;;;;;13.75;73.24;102479.38;1261246;23;599;-72
2022/12/01 00:23:04;;;;;;;;;;;;;;;13.76;73.17;102473.06;1261285;23;611;-73
2022/12/01 00:23:54;;;;;;;;;;;;;;;13.74;72.99;102472.28;1262057;23;653;-72
2022/12/01 00:24:45;;;;;;;;;;;;;;;13.75;73.36;102472.19;1262214;23;673;-73
2022/12/01 00:25:35;;;;;;;;;;;;;;;13.74;73.69;102477.63;1261317;23;653;-72
2022/12/01 00:26:25;;;;;;;;;;;;;;;13.73;73.75;102476.78;1261127;23;672;-72
2022/12/01 00:27:16;;;;;;;;;;;;;;;13.73;73.57;102484.81;1261374;23;711;-72
2022/12/01 00:28:06;;;;;;;;;;;;;;;13.73;73.14;102478.59;1261219;23;637;-72
2022/12/01 00:28:57;;;;;;;;;;;;;;;13.74;73.21;102474.97;1262152;23;676;-72
2022/12/01 00:29:47;;;;;;;;;;;;;;;13.76;73.15;102478.44;1261249;23;657;-72
2022/12/01 00:30:38;;;;;;;;;;;;;;;13.75;73.73;102479.38;1261392;23;610;-72
2022/12/01 00:31:28;;;;;;;;;;;;;;;13.75;73.42;102477.56;1261196;23;618;-73
2022/12/01 00:32:18;;;;;;;;;;;;;;;13.76;73.13;102486.47;1261270;23;610;-72
2022/12/01 00:33:09;;;;;;;;;;;;;;;13.75;73.10;102480.25;1261169;23;708;-73
2022/12/01 00:33:59;;;;;;;;;;;;;;;13.76;73.54;102481.97;1261317;23;618;-72
2022/12/01 00:34:50;;;;;;;;;;;;;;;13.76;73.54;102484.66;1260654;23;684;-73
2022/12/01 00:35:40;;;;;;;;;;;;;;;13.76;73.23;102487.34;1261312;23;696;-72
2022/12/01 00:36:31;;;;;;;;;;;;;;;13.75;73.67;102482.06;1261339;23;653;-72
2022/12/01 00:37:21;;;;;;;;;;;;;;;13.72;73.18;102482.22;1261120;23;1933;-72
2022/12/01 00:38:11;;;;;;;;;;;;;;;13.69;73.28;102475.19;1262192;23;625;-72
2022/12/01 00:39:02;;;;;;;;;;;;;;;13.71;73.08;102477.78;1261401;23;732;-72
2022/12/01 00:39:52;;;;;;;;;;;;;;;13.71;73.28;102481.34;1261270;23;598;-69
2022/12/01 00:40:43;;;;;;;;;;;;;;;13.72;73.35;102476.84;1261261;23;642;-72
2022/12/01 00:41:33;;;;;;;;;;;;;;;13.73;73.63;102478.59;1261331;23;626;-72
2022/12/01 00:42:24;;;;;;;;;;;;;;;13.72;73.81;102476.84;1261258;23;618;-72
2022/12/01 00:43:14;;;;;;;;;;;;;;;13.71;73.33;102475.97;1261490;23;665;-72
2022/12/01 00:44:04;;;;;;;;;;;;;;;13.70;73.26;102476.94;1261175;23;630;-72
2022/12/01 00:44:55;;;;;;;;;;;;;;;13.71;73.78;102475.13;1261222;23;677;-72
2022/12/01 00:45:45;;;;;;;;;;;;;;;13.72;73.65;102479.53;1261159;23;606;-72
2022/12/01 00:46:36;;;;;;;;;;;;;;;13.73;73.63;102476.78;1262078;23;687;-72
2022/12/01 00:47:26;;;;;;;;;;;;;;;13.73;73.18;102481.25;1261191;23;625;-72
2022/12/01 00:48:17;;;;;;;;;;;;;;;13.72;73.89;102480.41;1261250;23;618;-72
2022/12/01 00:49:07;;;;;;;;;;;;;;;13.71;73.29;102481.34;1255982;23;673;-72
2022/12/01 00:49:57;;;;;;;;;;;;;;;13.72;73.39;102482.22;1254990;23;629;-73
2022/12/01 00:50:48;;;;;;;;;;;;;;;13.71;73.81;102477.78;1261097;23;583;-73
2022/12/01 00:51:38;;;;;;;;;;;;;;;13.71;73.15;102480.47;1261445;23;719;-73
2022/12/01 00:52:29;;;;;;;;;;;;;;;13.71;73.72;102478.66;1261262;23;614;-74
2022/12/01 00:53:19;;;;;;;;;;;;;;;13.71;73.78;102477.78;1256417;23;700;-73
2022/12/01 00:54:10;;;;;;;;;;;;;;;13.72;73.82;102479.53;1254910;23;633;-73
2022/12/01 00:55:00;;;;;;;;;;;;;;;13.71;73.85;102477.78;1261067;23;661;-73
2022/12/01 00:55:52;;;;;;;;;;;;;;;13.71;73.30;102477.78;1262272;23;597;-73
2022/12/01 00:56:43;;;;;;;;;;;;;;;13.69;73.30;102485.03;1261217;23;603;-73
2022/12/01 00:57:33;;;;;;;;;;;;;;;13.71;73.54;102477.78;1261142;23;1938;-73
2022/12/01 00:58:24;;;;;;;;;;;;;;;13.71;73.20;102478.66;1261140;23;657;-73
2022/12/01 00:59:14;;;;;;;;;;;;;;;13.71;73.86;102480.47;1261296;23;630;-73
2022/12/01 01:00:04;;;;;;;;;;;;;;;13.71;73.15;102477.78;1261205;23;673;-73
2022/12/01 01:00:55;;;;;;;;;;;;;;;13.70;73.08;102476.94;1261268;23;661;-73
2022/12/01 01:01:45;;;;;;;;;;;;;;;13.71;73.22;102478.66;1261262;23;638;-73
2022/12/01 01:02:36;;;;;;;;;;;;;;;13.71;73.49;102483.16;1261100;23;775;-73
2022/12/01 01:03:26;;;;;;;;;;;;;;;13.70;73.59;102478.75;1261219;23;626;-73
2022/12/01 01:04:16;;;;;;;;;;;;;;;13.72;73.31;102479.53;1261268;23;999;-73
2022/12/01 01:05:07;;;;;;;;;;;;;;;13.72;73.77;102484.88;1261339;23;694;-73
2022/12/01 01:05:57;;;;;;;;;;;;;;;13.71;73.14;102478.66;1261252;23;614;-74
2022/12/01 01:06:48;;;;;;;;;;;;;;;13.71;73.36;102478.66;1261201;23;614;-73
2022/12/01 01:07:38;;;;;;;;;;;;;;;13.70;73.64;102482.28;1261202;23;721;-73
2022/12/01 01:08:29;;;;;;;;;;;;;;;13.69;73.61;102482.38;1262139;23;614;-72
2022/12/01 01:09:19;;;;;;;;;;;;;;;13.70;73.02;102482.28;1261307;23;653;-73
2022/12/01 01:10:09;;;;;;;;;;;;;;;13.71;73.94;102480.47;1262210;23;641;-73
2022/12/01 01:11:00;;;;;;;;;;;;;;;13.72;73.14;102476.84;1261300;23;657;-72
2022/12/01 01:11:50;;;;;;;;;;;;;;;13.71;73.52;102483.16;1261170;23;634;-73
2022/12/01 01:12:41;;;;;;;;;;;;;;;13.70;73.69;102476.06;1262174;23;672;-72
2022/12/01 01:13:31;;;;;;;;;;;;;;;13.67;73.91;102471.72;1261217;23;610;-73
2022/12/01 01:14:23;;;;;;;;;;;;;;;13.67;73.90;102481.56;1261179;23;614;-72
2022/12/01 01:15:13;;;;;;;;;;;;;;;13.67;73.83;102481.56;1261368;23;685;-73
2022/12/01 01:16:03;;;;;;;;;;;;;;;13.68;73.93;102478.81;1261238;23;653;-74
2022/12/01 01:16:55;;;;;;;;;;;;;;;13.70;72.92;102479.59;1262139;23;657;-73
2022/12/01 01:17:45;;;;;;;;;;;;;;;13.71;73.22;102477.78;1261193;23;622;-73
2022/12/01 01:18:35;;;;;;;;;;;;;;;13.70;73.54;102484.97;1261273;23;623;-73
2022/12/01 01:19:26;;;;;;;;;;;;;;;13.72;73.87;102482.22;1261282;23;653;-73
2022/12/01 01:20:16;;;;;;;;;;;;;;;13.71;73.06;102483.16;1261162;23;662;-73
2022/12/01 01:21:07;;;;;;;;;;;;;;;13.71;73.57;102485.84;1261272;23;724;-73
2022/12/01 01:21:57;;;;;;;;;;;;;;;13.71;73.05;102483.16;1261396;23;613;-73
2022/12/01 01:22:48;;;;;;;;;;;;;;;13.69;73.47;102491.25;1261175;23;653;-73
2022/12/01 01:23:38;;;;;;;;;;;;;;;13.70;73.85;102487.66;1261253;23;654;-73
2022/12/01 01:24:28;;;;;;;;;;;;;;;13.70;73.72;102481.41;1261236;23;614;-73
2022/12/01 01:25:19;;;;;;;;;;;;;;;13.70;73.81;102489.44;1261174;23;653;-72
2022/12/01 01:26:09;;;;;;;;;;;;;;;13.70;73.20;102492.13;1261232;23;728;-72
2022/12/01 01:27:00;;;;;;;;;;;;;;;13.70;73.14;102484.09;1261134;23;657;-72
2022/12/01 01:27:50;;;;;;;;;;;;;;;13.69;73.00;102495.75;1261225;23;653;-73
2022/12/01 01:28:41;;;;;;;;;;;;;;;13.70;72.99;102486.78;1261211;23;602;-72
2022/12/01 01:29:31;;;;;;;;;;;;;;;13.70;73.08;102486.78;1261234;23;634;-73
2022/12/01 01:30:22;;;;;;;;;;;;;;;13.70;73.43;102487.66;1261055;23;650;-73
2022/12/01 01:31:12;;;;;;;;;;;;;;;13.69;73.72;102487.72;1261380;23;692;-72
2022/12/01 01:32:03;;;;;;;;;;;;;;;13.69;73.52;102495.75;1261241;23;611;-72
2022/12/01 01:32:53;;;;;;;;;;;;;;;13.69;73.08;102493.94;1260720;23;666;-72
2022/12/01 01:33:43;;;;;;;;;;;;;;;13.69;73.61;102499.31;1262068;23;586;-73
2022/12/01 01:34:34;;;;;;;;;;;;;;;13.70;73.49;102500.16;1261220;23;653;-73
2022/12/01 01:35:24;;;;;;;;;;;;;;;13.70;73.81;102502.84;1261327;23;610;-73
2022/12/01 01:36:15;;;;;;;;;;;;;;;13.68;73.05;102492.22;1261206;23;624;-72
2022/12/01 01:37:05;;;;;;;;;;;;;;;13.70;73.74;102500.16;1261981;23;614;-72
2022/12/01 01:37:56;;;;;;;;;;;;;;;13.70;73.12;102494.81;1261170;23;626;-72
2022/12/01 01:38:46;;;;;;;;;;;;;;;13.71;73.43;102491.19;1261419;23;673;-72
2022/12/01 01:39:37;;;;;;;;;;;;;;;13.71;73.55;102493.88;1261635;23;614;-72
2022/12/01 01:40:27;;;;;;;;;;;;;;;13.71;73.59;102494.72;1261507;23;682;-72
2022/12/01 01:41:17;;;;;;;;;;;;;;;13.72;73.29;102500.97;1262532;23;649;-73
2022/12/01 01:42:08;;;;;;;;;;;;;;;13.69;73.80;102498.44;1262417;23;660;-72
2022/12/01 01:42:58;;;;;;;;;;;;;;;13.66;73.97;102496.78;1261688;23;857;-73
2022/12/01 01:43:49;;;;;;;;;;;;;;;13.66;73.69;102494.09;1261682;23;677;-72
2022/12/01 01:44:39;;;;;;;;;;;;;;;13.65;73.25;102500.41;1261582;23;705;-72
2022/12/01 01:45:30;;;;;;;;;;;;;;;13.64;74.09;102493.31;1261624;23;670;-72
2022/12/01 01:46:20;;;;;;;;;;;;;;;13.63;73.91;102494.25;1261595;23;662;-72
2022/12/01 01:47:11;;;;;;;;;;;;;;;13.65;73.94;102495.03;1260958;23;630;-72
2022/12/01 01:48:02;;;;;;;;;;;;;;;13.67;73.34;102497.66;1261603;23;674;-72
2022/12/01 01:48:53;;;;;;;;;;;;;;;13.67;73.34;102492.28;1261362;23;993;-74
2022/12/01 01:49:43;;;;;;;;;;;;;;;13.67;73.37;102493.16;1261616;23;720;-73
2022/12/01 01:50:33;;;;;;;;;;;;;;;13.66;73.47;102493.22;1261594;23;611;-73
2022/12/01 01:51:24;;;;;;;;;;;;;;;13.65;73.55;102495.03;1261465;23;635;-73
2022/12/01 01:52:14;;;;;;;;;;;;;;;13.65;73.86;102495.03;1255231;23;736;-73
2022/12/01 01:53:05;;;;;;;;;;;;;;;13.65;73.22;102496.84;1255233;23;602;-73
2022/12/01 01:53:55;;;;;;;;;;;;;;;13.64;73.27;102498.66;1261442;23;618;-73
2022/12/01 01:54:46;;;;;;;;;;;;;;;13.65;73.99;102494.19;1261578;23;618;-73
2022/12/01 01:55:36;;;;;;;;;;;;;;;13.65;73.77;102495.03;1261514;23;669;-73
2022/12/01 01:56:26;;;;;;;;;;;;;;;13.66;73.83;102501.25;1262421;23;731;-73
2022/12/01 01:57:17;;;;;;;;;;;;;;;13.65;73.90;102494.19;1261539;23;1940;-73
2022/12/01 01:58:07;;;;;;;;;;;;;;;13.65;73.36;102502.22;1261572;23;603;-73
2022/12/01 01:58:58;;;;;;;;;;;;;;;13.66;73.81;102501.25;1261593;23;670;-73
2022/12/01 01:59:48;;;;;;;;;;;;;;;13.64;74.08;102500.47;1262383;23;654;-73
2022/12/01 02:00:39;;;;;;;;;;;;;;;13.65;73.66;102502.22;1261440;23;610;-72
2022/12/01 02:01:30;;;;;;;;;;;;;;;13.65;73.05;102504.88;1261058;23;669;-72
2022/12/01 02:02:20;;;;;;;;;;;;;;;13.66;73.27;102499.47;1256855;23;665;-72
2022/12/01 02:03:10;;;;;;;;;;;;;;;13.67;73.17;102497.66;1255258;23;615;-72
2022/12/01 02:04:01;;;;;;;;;;;;;;;13.66;73.24;102495.91;1261407;23;642;-72
2022/12/01 02:04:51;;;;;;;;;;;;;;;13.68;73.08;102499.38;1261647;23;650;-73
2022/12/01 02:05:43;;;;;;;;;;;;;;;13.66;73.55;102502.13;1261652;23;622;-73
2022/12/01 02:06:34;;;;;;;;;;;;;;;13.64;74.04;102495.97;1261805;23;590;-74
2022/12/01 02:07:24;;;;;;;;;;;;;;;13.64;73.10;102497.78;1261510;23;685;-73
2022/12/01 02:08:15;;;;;;;;;;;;;;;13.63;74.06;102488.03;1261553;23;618;-72
2022/12/01 02:09:05;;;;;;;;;;;;;;;13.63;73.36;102496.94;1256745;23;642;-73
2022/12/01 02:09:56;;;;;;;;;;;;;;;13.62;73.88;102492.50;1255274;23;751;-73
2022/12/01 02:10:46;;;;;;;;;;;;;;;13.64;73.35;102492.44;1261449;23;649;-73
2022/12/01 02:11:47;;;;;;;;;;;;;;;13.64;73.64;102489.75;1261470;23;602;-73
2022/12/01 02:12:37;;;;;;;;;;;;;;;13.64;73.30;102484.41;1261499;23;590;-73
2022/12/01 02:13:27;;;;;;;;;;;;;;;13.63;73.61;102488.03;1262592;23;645;-73
2022/12/01 02:14:18;;;;;;;;;;;;;;;13.60;73.51;102483.72;1261545;23;653;-73
2022/12/01 02:15:08;;;;;;;;;;;;;;;13.61;73.29;102481.91;1262596;23;606;-73
2022/12/01 02:15:59;;;;;;;;;;;;;;;13.62;74.02;102486.28;1260992;23;680;-74
2022/12/01 02:16:49;;;;;;;;;;;;;;;13.63;73.96;102477.31;1261458;23;797;-73
2022/12/01 02:17:40;;;;;;;;;;;;;;;13.60;73.55;102481.03;1261378;23;1910;-73
2022/12/01 02:18:30;;;;;;;;;;;;;;;13.59;73.95;102481.13;1262349;23;629;-73
2022/12/01 02:19:20;;;;;;;;;;;;;;;13.60;73.75;102473.00;1261600;23;602;-73
2022/12/01 02:20:11;;;;;;;;;;;;;;;13.60;73.68;102483.72;1261578;23;598;-74
2022/12/01 02:21:02;;;;;;;;;;;;;;;13.62;73.25;102475.56;1261502;23;626;-74
2022/12/01 02:21:52;;;;;;;;;;;;;;;13.59;73.61;102481.97;1261703;23;759;-73
2022/12/01 02:22:42;;;;;;;;;;;;;;;13.58;73.55;102482.06;1261402;23;665;-74
2022/12/01 02:23:33;;;;;;;;;;;;;;;13.58;74.10;102484.75;1261405;23;598;-73
2022/12/01 02:24:23;;;;;;;;;;;;;;;13.60;74.13;102490.88;1262398;23;589;-73
2022/12/01 02:25:14;;;;;;;;;;;;;;;13.60;74.09;102486.41;1261558;23;673;-73
2022/12/01 02:26:04;;;;;;;;;;;;;;;13.58;73.54;102492.78;1261584;23;654;-73
2022/12/01 02:26:54;;;;;;;;;;;;;;;13.61;73.58;102492.63;1257037;23;669;-73
2022/12/01 02:27:45;;;;;;;;;;;;;;;13.61;73.13;102496.16;1255207;23;598;-74
2022/12/01 02:28:35;;;;;;;;;;;;;;;13.59;74.01;102495.38;1261279;23;669;-73
2022/12/01 02:29:26;;;;;;;;;;;;;;;13.60;73.45;102490.88;1261620;23;630;-73
2022/12/01 02:30:16;;;;;;;;;;;;;;;13.61;73.91;102495.31;1261519;23;708;-73
2022/12/01 02:31:07;;;;;;;;;;;;;;;13.60;73.56;102496.25;1261503;23;649;-73
2022/12/01 02:31:57;;;;;;;;;;;;;;;13.57;73.58;102491.03;1261532;23;633;-73
2022/12/01 02:32:48;;;;;;;;;;;;;;;13.58;74.13;102487.41;1261585;23;642;-73
2022/12/01 02:33:38;;;;;;;;;;;;;;;13.58;73.45;102493.66;1261325;23;609;-73
2022/12/01 02:34:28;;;;;;;;;;;;;;;13.58;73.99;102490.09;1262325;23;812;-73
2022/12/01 02:35:19;;;;;;;;;;;;;;;13.59;74.17;102489.16;1261543;23;653;-73
2022/12/01 02:36:09;;;;;;;;;;;;;;;13.61;73.62;102497.97;1261598;23;626;-73
2022/12/01 02:37:00;;;;;;;;;;;;;;;13.58;73.93;102485.59;1261578;23;633;-73
2022/12/01 02:37:50;;;;;;;;;;;;;;;13.60;73.26;102489.06;1262271;23;623;-73
2022/12/01 02:38:40;;;;;;;;;;;;;;;13.63;73.25;102490.69;1261416;23;650;-73
2022/12/01 02:39:31;;;;;;;;;;;;;;;13.61;73.44;102488.13;1262362;23;669;-74
2022/12/01 02:40:21;;;;;;;;;;;;;;;13.60;74.00;102481.03;1261490;23;626;-74
2022/12/01 02:41:12;;;;;;;;;;;;;;;13.59;73.99;102490.03;1262273;23;650;-74
2022/12/01 02:42:02;;;;;;;;;;;;;;;13.57;74.06;102483.00;1261592;23;638;-74
2022/12/01 02:42:55;;;;;;;;;;;;;;;13.54;73.79;102486.69;1261515;23;724;-74
2022/12/01 02:43:45;;;;;;;;;;;;;;;13.53;73.84;102490.31;1261371;23;653;-74
2022/12/01 02:44:36;;;;;;;;;;;;;;;13.54;74.39;102476.84;1256890;23;653;-74
2022/12/01 02:45:26;;;;;;;;;;;;;;;13.53;73.89;102483.16;1254545;23;763;-74
2022/12/01 02:46:17;;;;;;;;;;;;;;;13.54;74.41;102484.88;1261534;23;493;-74
2022/12/01 02:47:09;;;;;;;;;;;;;;;13.53;74.18;102479.59;1262370;23;673;-74
2022/12/01 02:48:00;;;;;;;;;;;;;;;13.57;73.51;102481.19;1261463;23;653;-74
2022/12/01 02:48:50;;;;;;;;;;;;;;;13.57;74.25;102477.66;1261255;23;1067;-73
2022/12/01 02:49:41;;;;;;;;;;;;;;;13.52;73.54;102475.19;1261416;23;677;-74
2022/12/01 02:50:31;;;;;;;;;;;;;;;13.52;73.76;102478.75;1261499;23;665;-74
2022/12/01 02:51:22;;;;;;;;;;;;;;;13.53;73.89;102479.59;1261565;23;685;-73
2022/12/01 02:52:12;;;;;;;;;;;;;;;13.54;73.73;102482.22;1261511;23;652;-72
2022/12/01 02:53:02;;;;;;;;;;;;;;;13.58;73.99;102482.94;1256736;23;646;-73
2022/12/01 02:53:53;;;;;;;;;;;;;;;13.60;74.00;102482.84;1255047;23;661;-73
2022/12/01 02:54:43;;;;;;;;;;;;;;;13.59;73.38;102486.47;1261450;23;688;-72
2022/12/01 02:55:34;;;;;;;;;;;;;;;13.58;74.08;102490.09;1262336;23;606;-72
2022/12/01 02:56:24;;;;;;;;;;;;;;;13.58;73.95;102492.78;1261493;23;649;-72
2022/12/01 02:57:15;;;;;;;;;;;;;;;13.60;73.98;102496.25;1261423;23;681;-73
2022/12/01 02:58:05;;;;;;;;;;;;;;;13.60;73.38;102490.88;1262251;23;598;-72
2022/12/01 02:58:55;;;;;;;;;;;;;;;13.60;73.44;102494.44;1262218;23;625;-73
2022/12/01 02:59:46;;;;;;;;;;;;;;;13.60;73.38;102493.56;1260867;23;614;-73
2022/12/01 03:00:36;;;;;;;;;;;;;;;13.61;73.68;102487.25;1261472;23;629;-72
2022/12/01 03:01:27;;;;;;;;;;;;;;;13.61;73.81;102490.81;1261433;23;622;-73
2022/12/01 03:02:17;;;;;;;;;;;;;;;13.61;73.32;102492.63;1261448;23;654;-72
2022/12/01 03:03:07;;;;;;;;;;;;;;;13.61;73.23;102497.97;1262470;23;661;-73
2022/12/01 03:03:58;;;;;;;;;;;;;;;13.59;74.09;102490.03;1261534;23;665;-73
2022/12/01 03:04:48;;;;;;;;;;;;;;;13.59;73.51;102489.16;1261480;23;612;-73
2022/12/01 03:05:39;;;;;;;;;;;;;;;13.58;73.29;102488.28;1256892;23;633;-73
2022/12/01 03:06:29;;;;;;;;;;;;;;;13.60;73.48;102493.56;1255104;23;673;-73
2022/12/01 03:07:20;;;;;;;;;;;;;;;13.59;73.33;102491.84;1261377;23;803;-73
2022/12/01 03:08:12;;;;;;;;;;;;;;;13.60;73.89;102496.25;1256763;23;618;-72
2022/12/01 03:09:03;;;;;;;;;;;;;;;13.60;73.44;102496.25;1255046;23;759;-72
2022/12/01 03:09:53;;;;;;;;;;;;;;;13.60;73.49;102490.88;1261493;23;664;-72
2022/12/01 03:10:44;;;;;;;;;;;;;;;13.58;73.25;102492.78;1262410;23;649;-72
2022/12/01 03:11:34;;;;;;;;;;;;;;;13.60;74.05;102501.59;1261333;23;614;-73
2022/12/01 03:12:24;;;;;;;;;;;;;;;13.59;73.31;102494.50;1261430;23;661;-73
2022/12/01 03:13:15;;;;;;;;;;;;;;;13.59;73.73;102499.88;1261519;23;661;-73
2022/12/01 03:14:06;;;;;;;;;;;;;;;13.60;73.76;102501.59;1260882;23;634;-73
2022/12/01 03:14:57;;;;;;;;;;;;;;;13.58;73.14;102492.78;1261402;23;642;-73
2022/12/01 03:15:47;;;;;;;;;;;;;;;13.58;73.33;102482.06;1261297;23;665;-73
2022/12/01 03:16:38;;;;;;;;;;;;;;;13.59;73.19;102489.16;1261365;23;650;-73
2022/12/01 03:17:28;;;;;;;;;;;;;;;13.59;74.06;102494.50;1256666;23;1944;-73
2022/12/01 03:18:18;;;;;;;;;;;;;;;13.57;73.76;102489.22;1255091;23;615;-73
2022/12/01 03:19:09;;;;;;;;;;;;;;;13.58;73.67;102482.06;1261215;23;674;-73
2022/12/01 03:19:59;;;;;;;;;;;;;;;13.57;73.38;102491.03;1262108;23;617;-73
2022/12/01 03:20:50;;;;;;;;;;;;;;;13.57;73.58;102488.38;1261424;23;681;-72
2022/12/01 03:21:40;;;;;;;;;;;;;;;13.58;73.10;102500.81;1262269;23;634;-73
2022/12/01 03:22:31;;;;;;;;;;;;;;;13.57;73.72;102494.59;1261391;23;630;-73
2022/12/01 03:23:21;;;;;;;;;;;;;;;13.55;73.33;102483.94;1261346;23;688;-73
2022/12/01 03:24:11;;;;;;;;;;;;;;;13.57;73.20;102496.41;1261390;23;624;-74
2022/12/01 03:25:02;;;;;;;;;;;;;;;13.56;73.43;102490.16;1261339;23;744;-74
2022/12/01 03:25:53;;;;;;;;;;;;;;;13.55;73.15;102489.31;1261392;23;654;-73
2022/12/01 03:26:43;;;;;;;;;;;;;;;13.54;73.30;102486.69;1261286;23;673;-74
2022/12/01 03:27:33;;;;;;;;;;;;;;;13.55;73.66;102486.63;1262125;23;618;-74
2022/12/01 03:28:27;;;;;;;;;;;;;;;13.54;73.78;102479.53;1262283;23;638;-74
2022/12/01 03:29:18;;;;;;;;;;;;;;;13.54;73.22;102479.53;1261372;23;614;-73
2022/12/01 03:30:09;;;;;;;;;;;;;;;13.52;73.58;102486.78;1261385;23;645;-73
2022/12/01 03:31:00;;;;;;;;;;;;;;;13.53;73.42;102491.19;1261313;23;598;-73
2022/12/01 03:31:51;;;;;;;;;;;;;;;13.54;73.28;102492.06;1262307;23;634;-74
2022/12/01 03:32:41;;;;;;;;;;;;;;;13.53;73.09;102485.84;1261395;23;611;-73
2022/12/01 03:33:32;;;;;;;;;;;;;;;13.54;73.28;102484.03;1261284;23;609;-74
2022/12/01 03:34:23;;;;;;;;;;;;;;;13.55;72.92;102483.94;1261331;23;657;-74
2022/12/01 03:35:13;;;;;;;;;;;;;;;13.54;73.33;102486.69;1261333;23;669;-74
2022/12/01 03:36:03;;;;;;;;;;;;;;;13.53;73.18;102484.97;1256740;23;708;-73
2022/12/01 03:36:54;;;;;;;;;;;;;;;13.52;73.77;102489.44;1255097;23;594;-74
2022/12/01 03:37:45;;;;;;;;;;;;;;;13.53;73.30;102493.88;1261057;23;1885;-73
2022/12/01 03:38:35;;;;;;;;;;;;;;;13.52;73.84;102489.44;1262140;23;595;-73
2022/12/01 03:39:26;;;;;;;;;;;;;;;13.54;74.03;102486.69;1262428;23;630;-73
2022/12/01 03:40:17;;;;;;;;;;;;;;;13.53;74.01;102491.19;1262282;23;652;-73
2022/12/01 03:41:07;;;;;;;;;;;;;;;13.52;73.42;102484.09;1261511;23;681;-73
2022/12/01 03:41:58;;;;;;;;;;;;;;;13.52;73.04;102484.09;1256822;23;622;-73
2022/12/01 03:42:48;;;;;;;;;;;;;;;13.53;73.70;102496.56;1255837;23;682;-73
2022/12/01 03:43:39;;;;;;;;;;;;;;;13.53;73.24;102483.16;1261145;23;638;-73
2022/12/01 03:44:29;;;;;;;;;;;;;;;13.50;73.84;102485.13;1261364;23;680;-73
2022/12/01 03:45:21;;;;;;;;;;;;;;;13.52;73.99;102489.44;1256591;23;673;-73
2022/12/01 03:46:11;;;;;;;;;;;;;;;13.52;74.00;102497.50;1249091;23;618;-73
2022/12/01 03:47:01;;;;;;;;;;;;;;;13.51;73.12;102492.22;1254148;23;686;-73
2022/12/01 03:47:52;;;;;;;;;;;;;;;13.50;73.33;102496.69;1259675;23;654;-73
2022/12/01 03:48:42;;;;;;;;;;;;;;;13.50;73.90;102494.03;1260994;23;1090;-73
2022/12/01 03:49:33;;;;;;;;;;;;;;;13.50;73.78;102496.69;1261377;23;602;-73
2022/12/01 03:50:23;;;;;;;;;;;;;;;13.50;73.82;102491.34;1261416;23;649;-73
2022/12/01 03:51:14;;;;;;;;;;;;;;;13.49;74.11;102497.66;1261405;23;602;-74
2022/12/01 03:52:04;;;;;;;;;;;;;;;13.50;73.57;102493.16;1261411;23;801;-73
2022/12/01 03:52:55;;;;;;;;;;;;;;;13.50;73.83;102495.84;1262479;23;668;-74
2022/12/01 03:53:45;;;;;;;;;;;;;;;13.51;73.47;102490.41;1261296;23;661;-73
2022/12/01 03:54:35;;;;;;;;;;;;;;;13.50;73.82;102496.69;1262044;23;807;-73
2022/12/01 03:55:26;;;;;;;;;;;;;;;13.50;73.78;102490.47;1261335;23;649;-73
2022/12/01 03:56:16;;;;;;;;;;;;;;;13.51;74.03;102497.56;1262177;23;626;-73
2022/12/01 03:57:07;;;;;;;;;;;;;;;13.51;73.12;102492.22;1261382;23;622;-73
2022/12/01 03:57:57;;;;;;;;;;;;;;;13.50;73.07;102487.78;1260737;23;700;-73
2022/12/01 03:58:48;;;;;;;;;;;;;;;13.50;73.89;102483.31;1261269;23;608;-73
2022/12/01 03:59:38;;;;;;;;;;;;;;;13.49;73.48;102489.59;1262019;23;645;-73
2022/12/01 04:00:30;;;;;;;;;;;;;;;13.48;73.74;102498.59;1261230;23;692;-73
2022/12/01 04:01:21;;;;;;;;;;;;;;;13.49;73.95;102494.97;1261254;23;618;-73
2022/12/01 04:02:11;;;;;;;;;;;;;;;13.49;73.21;102489.59;1261279;23;653;-73
2022/12/01 04:03:02;;;;;;;;;;;;;;;13.47;73.42;102496.84;1261340;23;693;-72
2022/12/01 04:03:53;;;;;;;;;;;;;;;13.48;73.67;102497.72;1261350;23;650;-73
2022/12/01 04:04:43;;;;;;;;;;;;;;;13.48;73.98;102492.38;1261315;23;704;-73
2022/12/01 04:05:34;;;;;;;;;;;;;;;13.49;74.08;102494.97;1262311;23;618;-74
2022/12/01 04:06:24;;;;;;;;;;;;;;;13.50;73.76;102495.84;1261301;23;666;-73
2022/12/01 04:07:14;;;;;;;;;;;;;;;13.48;73.82;102501.25;1261353;23;681;-73
2022/12/01 04:08:05;;;;;;;;;;;;;;;13.49;73.34;102494.09;1262367;23;640;-74
2022/12/01 04:08:55;;;;;;;;;;;;;;;13.48;73.09;102493.22;1261334;23;614;-73
2022/12/01 04:09:46;;;;;;;;;;;;;;;13.47;73.47;102491.50;1262254;23;610;-73
2022/12/01 04:10:36;;;;;;;;;;;;;;;13.47;73.43;102491.50;1262038;23;628;-73
2022/12/01 04:12:36;;;;;;;;;;;;;;;13.47;73.28;102493.31;1261995;23;622;-73
2022/12/01 04:13:26;;;;;;;;;;;;;;;13.46;73.45;102495.13;1261351;23;641;-73
2022/12/01 04:14:17;;;;;;;;;;;;;;;13.46;73.74;102487.09;1261306;23;626;-72
2022/12/01 04:15:07;;;;;;;;;;;;;;;13.47;73.83;102486.13;1261405;23;653;-73
2022/12/01 04:15:58;;;;;;;;;;;;;;;13.47;73.31;102488.81;1261218;23;665;-73
2022/12/01 04:16:48;;;;;;;;;;;;;;;13.48;73.01;102487.00;1262166;23;633;-72
2022/12/01 04:17:39;;;;;;;;;;;;;;;13.48;73.33;102487.88;1261209;23;1938;-73
2022/12/01 04:18:29;;;;;;;;;;;;;;;13.48;73.75;102487.00;1261370;23;638;-73
2022/12/01 04:19:19;;;;;;;;;;;;;;;13.47;73.55;102486.13;1261277;23;646;-73
2022/12/01 04:20:10;;;;;;;;;;;;;;;13.44;73.78;102486.28;1261329;23;641;-73
2022/12/01 04:21:00;;;;;;;;;;;;;;;13.41;73.69;102488.28;1261371;23;606;-73
2022/12/01 04:21:51;;;;;;;;;;;;;;;13.42;74.35;102482.84;1261256;23;622;-73
2022/12/01 04:22:41;;;;;;;;;;;;;;;13.41;73.39;102486.47;1261318;23;1271;-72
2022/12/01 04:24:41;;;;;;;;;;;;;;;13.47;73.63;102479.91;1262115;23;646;-73
2022/12/01 04:25:31;;;;;;;;;;;;;;;13.48;74.11;102482.50;1261193;23;649;-72
2022/12/01 04:26:22;;;;;;;;;;;;;;;13.50;73.74;102475.28;1261370;23;599;-72
2022/12/01 04:27:12;;;;;;;;;;;;;;;13.49;74.10;102473.53;1261284;23;662;-73
2022/12/01 04:28:02;;;;;;;;;;;;;;;13.48;73.98;102470.94;1261356;23;602;-72
2022/12/01 04:28:53;;;;;;;;;;;;;;;13.47;73.19;102467.38;1261205;23;661;-72
2022/12/01 04:29:43;;;;;;;;;;;;;;;13.47;73.38;102478.09;1261331;23;672;-72
2022/12/01 04:30:34;;;;;;;;;;;;;;;13.49;73.63;102472.66;1261267;23;689;-72